createdAt,value
2019-02-10T17:00:40.335Z,96016.12
2019-02-10T17:00:49.781Z,96016.28
2019-02-10T17:00:59.196Z,96020.98
2019-02-10T17:01:08.613Z,96021.94
2019-02-10T17:01:18.026Z,96017.52
2019-02-10T17:01:27.547Z,96022.30
2019-02-10T17:01:37.104Z,96017.99
2019-02-10T17:01:46.516Z,96018.35
2019-02-10T17:01:55.931Z,96021.85
2019-02-10T17:02:05.348Z,96022.30
2019-02-10T17:02:14.840Z,96023.25
2019-02-10T17:02:24.258Z,96024.92
2019-02-10T17:02:33.676Z,96028.78
2019-02-10T17:02:43.098Z,96007.48
2019-02-10T17:02:52.511Z,96016.28
2019-02-10T17:03:01.987Z,96022.11
2019-02-10T17:03:11.393Z,96019.09
2019-02-10T17:03:20.810Z,96021.35
2019-02-10T17:03:30.233Z,96019.39
2019-02-10T17:03:39.802Z,96011.20
2019-02-10T17:03:49.195Z,96017.69
2019-02-10T17:03:58.602Z,96017.43
2019-02-10T17:04:08.032Z,96023.05
2019-02-10T17:04:17.435Z,96010.77
2019-02-10T17:04:26.858Z,96016.39
2019-02-10T17:04:36.275Z,96016.30
2019-02-10T17:04:45.795Z,96012.84
2019-02-10T17:04:55.203Z,96023.35
2019-02-10T17:05:05.589Z,96018.38
2019-02-10T17:05:14.995Z,96010.05
2019-02-10T17:05:24.409Z,96014.99
2019-02-10T17:05:33.825Z,96007.67
2019-02-10T17:05:43.242Z,96011.70
2019-02-10T17:05:52.661Z,96012.26
2019-02-10T17:06:02.067Z,96005.61
2019-02-10T17:06:11.469Z,96019.41
2019-02-10T17:06:20.879Z,96007.59
2019-02-10T17:06:30.294Z,96012.92
2019-02-10T17:06:39.706Z,96016.05
2019-02-10T17:06:49.266Z,96018.56
2019-02-10T17:06:58.688Z,96009.84
2019-02-10T17:07:08.184Z,96011.80
2019-02-10T17:07:17.642Z,96007.95
2019-02-10T17:07:27.157Z,96009.17
2019-02-10T17:07:36.565Z,96006.75
2019-02-10T17:07:45.981Z,96008.50
2019-02-10T17:07:55.422Z,96011.05
2019-02-10T17:08:04.866Z,96009.38
2019-02-10T17:08:14.270Z,96009.38
2019-02-10T17:08:23.688Z,96015.74
2019-02-10T17:08:33.102Z,96005.63
2019-02-10T17:08:42.519Z,96019.12
2019-02-10T17:08:51.942Z,96014.82
2019-02-10T17:09:01.360Z,96011.44
2019-02-10T17:09:12.031Z,96016.70
2019-02-10T17:09:21.463Z,96008.81
2019-02-10T17:09:30.878Z,96017.36
2019-02-10T17:09:40.284Z,96011.62
2019-02-10T17:09:49.750Z,96014.73
2019-02-10T17:09:59.281Z,96016.88
2019-02-10T17:10:20.763Z,96019.52
2019-02-10T17:10:31.452Z,96017.36
2019-02-10T17:10:40.841Z,96025.05
2019-02-10T17:10:50.426Z,96020.44
2019-02-10T17:10:59.910Z,96021.75
2019-02-10T17:11:14.355Z,96025.69
2019-02-10T17:11:22.055Z,96024.77
2019-02-10T17:11:31.471Z,96023.94
2019-02-10T17:11:40.860Z,96028.23
2019-02-10T17:11:50.289Z,96029.07
2019-02-10T17:11:59.681Z,96021.30
2019-02-10T17:12:09.122Z,96026.17
2019-02-10T17:12:18.506Z,96026.65
2019-02-10T17:12:27.942Z,96029.64
2019-02-10T17:12:37.331Z,96028.44
2019-02-10T17:12:46.748Z,96032.38
2019-02-10T17:12:56.139Z,96033.58
2019-02-10T17:13:05.601Z,96031.17
2019-02-10T17:13:15.206Z,96030.78
2019-02-10T17:13:24.617Z,96033.02
2019-02-10T17:13:34.008Z,96041.46
2019-02-10T17:13:43.426Z,96037.52
2019-02-10T17:13:52.811Z,96026.25
2019-02-10T17:14:02.227Z,96042.11
2019-02-10T17:14:11.616Z,96030.40
2019-02-10T17:14:21.028Z,96035.18
2019-02-10T17:14:30.415Z,96036.02
2019-02-10T17:14:39.828Z,96033.78
2019-02-10T17:14:50.288Z,96033.03
2019-02-10T17:14:59.702Z,96038.28
2019-02-10T17:15:11.431Z,96039.03
2019-02-10T17:15:20.849Z,96037.72
2019-02-10T17:15:30.235Z,96042.11
2019-02-10T17:15:39.647Z,96040.44
2019-02-10T17:15:49.040Z,96041.27
2019-02-10T17:16:04.981Z,96046.61
2019-02-10T17:16:09.568Z,96036.58
2019-02-10T17:16:18.967Z,96040.13
2019-02-10T17:16:28.384Z,96043.63
2019-02-10T17:16:37.771Z,96048.88
2019-02-10T17:16:47.211Z,96037.50
2019-02-10T17:16:56.697Z,96037.14
2019-02-10T17:17:06.109Z,96036.66
2019-02-10T17:17:15.495Z,96039.20
2019-02-10T17:17:24.911Z,96038.73
2019-02-10T17:17:34.294Z,96034.42
2019-02-10T17:17:44.850Z,96035.66
2019-02-10T17:17:54.238Z,96043.98
2019-02-10T17:18:03.650Z,96037.89
2019-02-10T17:18:13.040Z,96041.83
2019-02-10T17:18:22.450Z,96037.50
2019-02-10T17:18:31.838Z,96038.37
2019-02-10T17:18:41.250Z,96039.29
2019-02-10T17:18:50.639Z,96036.19
2019-02-10T17:19:00.042Z,96031.05
2019-02-10T17:19:09.430Z,96037.50
2019-02-10T17:19:18.854Z,96034.03
2019-02-10T17:19:28.361Z,96041.08
2019-02-10T17:19:37.773Z,96042.39
2019-02-10T17:19:47.158Z,96040.69
2019-02-10T17:19:56.692Z,96036.95
2019-02-10T17:20:09.219Z,96041.16
2019-02-10T17:20:18.639Z,96035.34
2019-02-10T17:20:28.298Z,96041.08
2019-02-10T17:20:37.703Z,96044.07
2019-02-10T17:20:47.093Z,96039.77
2019-02-10T17:20:56.506Z,96035.83
2019-02-10T17:21:05.894Z,96037.14
2019-02-10T17:21:15.320Z,96039.59
2019-02-10T17:21:24.703Z,96033.39
2019-02-10T17:21:34.118Z,96041.10
2019-02-10T17:21:43.512Z,96036.77
2019-02-10T17:21:52.939Z,96035.84
2019-02-10T17:22:05.769Z,96039.31
2019-02-10T17:22:16.945Z,96034.80
2019-02-10T17:22:26.353Z,96033.59
2019-02-10T17:22:35.771Z,96036.31
2019-02-10T17:22:45.164Z,96028.15
2019-02-10T17:22:54.575Z,96020.17
2019-02-10T17:23:03.969Z,96025.52
2019-02-10T17:23:13.414Z,96021.19
2019-02-10T17:23:22.794Z,96023.64
2019-02-10T17:23:33.290Z,96016.80
2019-02-10T17:23:42.875Z,96022.14
2019-02-10T17:23:52.299Z,96023.06
2019-02-10T17:24:01.686Z,96017.25
2019-02-10T17:24:11.117Z,96020.27
2019-02-10T17:24:20.502Z,96019.88
2019-02-10T17:24:29.953Z,96022.05
2019-02-10T17:24:39.342Z,96019.42
2019-02-10T17:24:48.911Z,96024.69
2019-02-10T17:24:58.299Z,96029.55
2019-02-10T17:25:14.103Z,96033.48
2019-02-10T17:25:26.743Z,96027.40
2019-02-10T17:25:36.158Z,96026.08
2019-02-10T17:25:45.546Z,96032.27
2019-02-10T17:25:54.985Z,96029.55
2019-02-10T17:26:04.354Z,96031.25
2019-02-10T17:26:13.778Z,96034.72
2019-02-10T17:26:23.169Z,96029.94
2019-02-10T17:26:32.574Z,96036.03
2019-02-10T17:26:41.969Z,96033.41
2019-02-10T17:26:51.378Z,96028.98
2019-02-10T17:27:00.766Z,96034.16
2019-02-10T17:27:10.183Z,96039.80
2019-02-10T17:27:19.638Z,96033.68
2019-02-10T17:27:29.059Z,96035.47
2019-02-10T17:27:38.445Z,96036.88
2019-02-10T17:27:47.891Z,96041.29
2019-02-10T17:27:57.280Z,96037.44
2019-02-10T17:28:06.849Z,96036.03
2019-02-10T17:28:16.419Z,96042.77
2019-02-10T17:28:25.999Z,96036.03
2019-02-10T17:28:35.391Z,96035.20
2019-02-10T17:28:46.832Z,96047.38
2019-02-10T17:28:56.225Z,96044.31
2019-02-10T17:29:06.019Z,96051.72
2019-02-10T17:29:15.389Z,96049.92
2019-02-10T17:29:24.882Z,96050.88
2019-02-10T17:29:34.269Z,96049.92
2019-02-10T17:29:43.691Z,96048.14
2019-02-10T17:29:53.598Z,96055.94
2019-02-10T17:30:03.003Z,96052.08
2019-02-10T17:30:14.946Z,96041.12
2019-02-10T17:30:24.317Z,96047.69
2019-02-10T17:30:33.702Z,96046.38
2019-02-10T17:30:43.395Z,96048.53
2019-02-10T17:30:52.848Z,96046.73
2019-02-10T17:31:02.338Z,96056.41
2019-02-10T17:31:11.725Z,96051.16
2019-02-10T17:31:21.144Z,96048.25
2019-02-10T17:31:30.530Z,96051.72
2019-02-10T17:31:39.993Z,96051.24
2019-02-10T17:31:49.482Z,96053.87
2019-02-10T17:31:58.891Z,96049.92
2019-02-10T17:32:08.275Z,96056.02
2019-02-10T17:32:17.689Z,96059.52
2019-02-10T17:32:27.074Z,96062.15
2019-02-10T17:32:36.494Z,96057.25
2019-02-10T17:32:45.882Z,96060.83
2019-02-10T17:32:55.297Z,96056.69
2019-02-10T17:33:04.687Z,96057.83
2019-02-10T17:33:14.107Z,96057.66
2019-02-10T17:33:23.495Z,96065.25
2019-02-10T17:33:32.935Z,96065.92
2019-02-10T17:33:42.328Z,96066.23
2019-02-10T17:33:51.730Z,96059.45
2019-02-10T17:34:11.545Z,96063.05
2019-02-10T17:34:20.964Z,96062.95
2019-02-10T17:34:30.379Z,96067.67
2019-02-10T17:34:39.977Z,96072.77
2019-02-10T17:34:49.500Z,96066.01
2019-02-10T17:34:58.925Z,96074.65
2019-02-10T17:35:10.784Z,96073.52
2019-02-10T17:35:20.233Z,96071.09
2019-02-10T17:35:29.645Z,96081.04
2019-02-10T17:35:39.072Z,96074.47
2019-02-10T17:35:48.507Z,96078.86
2019-02-10T17:35:57.928Z,96077.54
2019-02-10T17:36:26.339Z,96079.34
2019-02-10T17:36:35.784Z,96084.69
2019-02-10T17:36:45.207Z,96086.39
2019-02-10T17:36:54.628Z,96083.85
2019-02-10T17:37:04.059Z,96088.19
2019-02-10T17:37:13.479Z,96089.50
2019-02-10T17:37:22.897Z,96088.19
2019-02-10T17:37:32.357Z,96088.28
2019-02-10T17:37:41.781Z,96090.91
2019-02-10T17:37:51.199Z,96091.83
2019-02-10T17:38:00.794Z,96085.34
2019-02-10T17:38:10.212Z,96083.67
2019-02-10T17:38:19.733Z,96093.33
2019-02-10T17:38:29.180Z,96090.25
2019-02-10T17:38:38.680Z,96088.36
2019-02-10T17:38:48.101Z,96085.17
2019-02-10T17:38:57.590Z,96089.38
2019-02-10T17:39:08.448Z,96086.66
2019-02-10T17:39:17.886Z,96085.27
2019-02-10T17:39:27.307Z,96079.08
2019-02-10T17:39:36.799Z,96085.17
2019-02-10T17:39:46.309Z,96071.27
2019-02-10T17:39:55.736Z,96071.27
2019-02-10T17:40:14.405Z,96076.14
2019-02-10T17:40:32.661Z,96069.75
2019-02-10T17:41:07.664Z,96070.14
2019-02-10T17:41:36.722Z,96057.99
2019-02-10T17:41:46.411Z,96067.41
2019-02-10T17:41:55.835Z,96067.41
2019-02-10T17:42:05.247Z,96056.98
2019-02-10T17:42:14.669Z,96065.27
2019-02-10T17:42:24.094Z,96055.09
2019-02-10T17:42:33.512Z,96062.33
2019-02-10T17:42:42.939Z,96067.89
2019-02-10T17:42:52.361Z,96056.05
2019-02-10T17:43:03.132Z,96044.75
2019-02-10T17:43:13.018Z,96054.92
2019-02-10T17:43:28.071Z,96044.75
2019-02-10T17:43:33.661Z,96049.08
2019-02-10T17:43:43.085Z,96063.17
2019-02-10T17:43:52.532Z,96053.59
2019-02-10T17:44:01.953Z,96055.75
2019-02-10T17:44:11.393Z,96059.79
2019-02-10T17:44:20.813Z,96058.20
2019-02-10T17:44:30.399Z,96049.48
2019-02-10T17:44:39.821Z,96054.73
2019-02-10T17:44:49.238Z,96056.59
2019-02-10T17:44:58.707Z,96053.59
2019-02-10T17:45:10.060Z,96056.59
2019-02-10T17:45:19.474Z,96055.48
2019-02-10T17:45:28.885Z,96058.11
2019-02-10T17:45:40.072Z,96052.85
2019-02-10T17:45:49.557Z,96055.93
2019-02-10T17:45:58.954Z,96053.78
2019-02-10T17:46:08.378Z,96056.89
2019-02-10T17:46:17.791Z,96061.67
2019-02-10T17:46:27.201Z,96061.67
2019-02-10T17:46:36.611Z,96086.31
2019-02-10T17:46:46.029Z,96060.09
2019-02-10T17:46:55.481Z,96064.95
2019-02-10T17:47:04.893Z,96071.53
2019-02-10T17:47:14.302Z,96072.41
2019-02-10T17:47:23.726Z,96068.63
2019-02-10T17:47:33.145Z,96072.94
2019-02-10T17:47:42.565Z,96066.93
2019-02-10T17:47:53.252Z,96072.67
2019-02-10T17:48:03.740Z,96074.07
2019-02-10T17:48:13.133Z,96069.29
2019-02-10T17:48:23.622Z,96076.34
2019-02-10T17:48:33.084Z,96078.58
2019-02-10T17:48:42.519Z,96075.03
2019-02-10T17:48:51.921Z,96076.14
2019-02-10T17:49:01.346Z,96072.02
2019-02-10T17:49:10.740Z,96077.10
2019-02-10T17:49:20.207Z,96074.55
2019-02-10T17:49:29.658Z,96073.81
2019-02-10T17:49:39.086Z,96080.30
2019-02-10T17:49:48.579Z,96081.61
2019-02-10T17:49:57.992Z,96088.55
2019-02-10T17:50:12.073Z,96080.27
2019-02-10T17:50:21.502Z,96076.14
2019-02-10T17:50:30.897Z,96083.11
2019-02-10T17:50:40.309Z,96094.86
2019-02-10T17:50:49.711Z,96095.04
2019-02-10T17:50:59.120Z,96094.95
2019-02-10T17:51:08.512Z,96094.56
2019-02-10T17:51:17.932Z,96095.12
2019-02-10T17:51:27.323Z,96109.42
2019-02-10T17:51:36.745Z,96101.53
2019-02-10T17:51:46.141Z,96107.37
2019-02-10T17:51:55.562Z,96104.61
2019-02-10T17:52:04.952Z,96108.30
2019-02-10T17:52:14.391Z,96111.48
2019-02-10T17:52:31.712Z,96097.67
2019-02-10T17:52:34.913Z,96113.55
2019-02-10T17:52:44.305Z,96113.72
2019-02-10T17:52:53.725Z,96104.25
2019-02-10T17:53:03.120Z,96114.86
2019-02-10T17:53:12.577Z,96111.86
2019-02-10T17:53:21.972Z,96118.53
2019-02-10T17:53:31.385Z,96120.30
2019-02-10T17:53:40.776Z,96116.08
2019-02-10T17:53:50.197Z,96118.70
2019-02-10T17:53:59.589Z,96116.08
2019-02-10T17:54:09.138Z,96115.59
2019-02-10T17:54:19.479Z,96118.80
2019-02-10T17:54:28.985Z,96120.11
2019-02-10T17:54:38.376Z,96119.75
2019-02-10T17:54:47.800Z,96111.08
2019-02-10T17:54:57.194Z,96110.72
2019-02-10T17:55:08.605Z,96109.48
2019-02-10T17:55:18.113Z,96117.11
2019-02-10T17:55:27.572Z,96114.47
2019-02-10T17:55:36.964Z,96108.64
2019-02-10T17:55:46.388Z,96111.80
2019-02-10T17:55:55.789Z,96103.24
2019-02-10T17:56:05.198Z,96108.77
2019-02-10T17:56:14.592Z,96101.44
2019-02-10T17:56:24.017Z,96111.38
2019-02-10T17:56:33.408Z,96103.60
2019-02-10T17:56:42.828Z,96103.69
2019-02-10T17:56:52.221Z,96103.58
2019-02-10T17:57:01.764Z,96108.17
2019-02-10T17:57:11.216Z,96108.34
2019-02-10T17:57:20.640Z,96113.02
2019-02-10T17:57:30.028Z,96105.29
2019-02-10T17:57:39.456Z,96105.85
2019-02-10T17:57:48.859Z,96108.59
2019-02-10T17:57:58.292Z,96108.68
2019-02-10T17:58:07.690Z,96109.77
2019-02-10T17:58:17.101Z,96105.55
2019-02-10T17:58:26.559Z,96107.11
2019-02-10T17:58:35.956Z,96106.36
2019-02-10T17:58:45.344Z,96108.54
2019-02-10T17:58:54.761Z,96107.30
2019-02-10T17:59:07.306Z,96106.91
2019-02-10T17:59:16.862Z,96110.09
2019-02-10T17:59:26.251Z,96105.13
2019-02-10T17:59:35.673Z,96107.91
2019-02-10T17:59:45.067Z,96111.02
2019-02-10T17:59:54.648Z,96108.44
2019-02-10T18:00:12.737Z,96103.34
2019-02-10T18:00:23.676Z,96114.58
2019-02-10T18:00:37.417Z,96107.45
2019-02-10T18:00:48.357Z,96111.47
2019-02-10T18:00:57.749Z,96115.96
2019-02-10T18:01:07.852Z,96120.34
2019-02-10T18:01:17.244Z,96116.88
2019-02-10T18:01:26.665Z,96120.98
2019-02-10T18:01:36.059Z,96112.27
2019-02-10T18:01:45.481Z,96121.53
2019-02-10T18:01:55.940Z,96117.79
2019-02-10T18:02:05.364Z,96113.06
2019-02-10T18:02:14.755Z,96115.41
2019-02-10T18:02:24.172Z,96114.17
2019-02-10T18:02:33.570Z,96122.52
2019-02-10T18:02:42.993Z,96123.44
2019-02-10T18:02:52.394Z,96121.36
2019-02-10T18:03:01.819Z,96118.93
2019-02-10T18:03:11.216Z,96118.77
2019-02-10T18:03:20.648Z,96122.50
2019-02-10T18:03:30.161Z,96118.83
2019-02-10T18:03:39.581Z,96125.47
2019-02-10T18:03:48.976Z,96125.62
2019-02-10T18:03:58.396Z,96127.88
2019-02-10T18:04:07.789Z,96127.88
2019-02-10T18:04:17.211Z,96129.56
2019-02-10T18:04:26.603Z,96126.58
2019-02-10T18:04:37.547Z,96129.35
2019-02-10T18:04:48.363Z,96129.91
2019-02-10T18:04:57.782Z,96137.93
2019-02-10T18:05:08.712Z,96137.56
2019-02-10T18:05:18.129Z,96139.31
2019-02-10T18:05:27.569Z,96147.11
2019-02-10T18:05:37.076Z,96142.81
2019-02-10T18:05:46.479Z,96151.20
2019-02-10T18:05:55.895Z,96147.27
2019-02-10T18:06:06.259Z,96143.48
2019-02-10T18:06:15.675Z,96146.66
2019-02-10T18:06:26.299Z,96155.29
2019-02-10T18:06:35.665Z,96156.75
2019-02-10T18:06:45.057Z,96149.72
2019-02-10T18:06:54.473Z,96155.91
2019-02-10T18:07:03.886Z,96160.69
2019-02-10T18:07:14.360Z,96171.19
2019-02-10T18:07:23.747Z,96171.73
2019-02-10T18:07:33.169Z,96172.65
2019-02-10T18:07:42.561Z,96174.51
2019-02-10T18:07:51.987Z,96171.74
2019-02-10T18:08:01.380Z,96174.00
2019-02-10T18:08:10.800Z,96169.20
2019-02-10T18:08:20.243Z,96172.00
2019-02-10T18:08:29.649Z,96177.80
2019-02-10T18:08:39.045Z,96180.41
2019-02-10T18:08:48.464Z,96183.95
2019-02-10T18:08:58.829Z,96186.36
2019-02-10T18:09:08.253Z,96191.28
2019-02-10T18:09:17.649Z,96189.59
2019-02-10T18:09:27.080Z,96196.70
2019-02-10T18:09:36.469Z,96191.53
2019-02-10T18:09:45.896Z,96191.60
2019-02-10T18:09:55.288Z,96194.70
2019-02-10T18:10:07.207Z,96204.49
2019-02-10T18:10:16.767Z,96208.17
2019-02-10T18:10:26.204Z,96205.25
2019-02-10T18:10:35.590Z,96206.20
2019-02-10T18:10:45.021Z,96209.66
2019-02-10T18:10:54.684Z,96204.95
2019-02-10T18:11:04.096Z,96205.39
2019-02-10T18:11:13.489Z,96204.63
2019-02-10T18:11:30.740Z,96213.98
2019-02-10T18:11:34.012Z,96212.41
2019-02-10T18:11:43.436Z,96216.34
2019-02-10T18:11:52.831Z,96217.90
2019-02-10T18:12:02.265Z,96217.56
2019-02-10T18:12:11.655Z,96222.21
2019-02-10T18:12:21.249Z,96229.20
2019-02-10T18:12:30.646Z,96234.01
2019-02-10T18:12:40.071Z,96213.55
2019-02-10T18:12:49.493Z,96232.94
2019-02-10T18:12:58.914Z,96251.13
2019-02-10T18:13:08.318Z,96248.27
2019-02-10T18:13:17.729Z,96251.50
2019-02-10T18:13:28.289Z,96238.09
2019-02-10T18:13:37.819Z,96246.93
2019-02-10T18:13:47.215Z,96230.51
2019-02-10T18:13:56.632Z,96275.11
2019-02-10T18:14:07.554Z,96273.91
2019-02-10T18:14:18.510Z,96279.41
2019-02-10T18:14:32.306Z,96250.36
2019-02-10T18:14:43.261Z,96244.95
2019-02-10T18:15:06.453Z,96250.38
2019-02-10T18:15:17.400Z,96274.42
2019-02-10T18:15:28.327Z,96266.99
2019-02-10T18:15:55.530Z,96280.02
2019-02-10T18:16:12.296Z,96263.61
2019-02-10T18:16:23.244Z,96267.77
2019-02-10T18:16:34.169Z,96261.16
2019-02-10T18:16:45.123Z,96257.47
2019-02-10T18:17:12.373Z,96263.08
2019-02-10T18:17:26.094Z,96273.25
2019-02-10T18:17:37.013Z,96266.87
2019-02-10T18:18:04.295Z,96261.34
2019-02-10T18:18:15.221Z,96262.84
2019-02-10T18:18:29.025Z,96266.97
2019-02-10T18:18:39.948Z,96262.27
2019-02-10T18:18:53.369Z,96263.33
2019-02-10T18:19:09.836Z,96264.53
2019-02-10T18:19:29.792Z,96264.81
2019-02-10T18:19:40.708Z,96263.94
2019-02-10T18:19:51.648Z,96265.59
2019-02-10T18:20:12.684Z,96264.28
2019-02-10T18:20:26.309Z,96264.59
2019-02-10T18:20:55.304Z,96270.36
2019-02-10T18:21:21.372Z,96262.91
2019-02-10T18:21:47.501Z,96269.11
2019-02-10T18:21:58.476Z,96262.04
2019-02-10T18:22:09.395Z,96271.80
2019-02-10T18:22:20.340Z,96271.48
2019-02-10T18:22:31.271Z,96263.23
2019-02-10T18:22:43.185Z,96267.25
2019-02-10T18:22:54.107Z,96269.46
2019-02-10T18:23:21.580Z,96265.28
2019-02-10T18:23:41.468Z,96265.41
2019-02-10T18:23:52.418Z,96265.87
2019-02-10T18:24:09.074Z,96266.25
2019-02-10T18:24:20.026Z,96274.63
2019-02-10T18:24:33.639Z,96275.16
2019-02-10T18:24:59.647Z,96278.56
2019-02-10T18:25:10.574Z,96280.02
2019-02-10T18:25:27.417Z,96284.07
2019-02-10T18:25:38.364Z,96284.20
2019-02-10T18:25:58.264Z,96281.98
2019-02-10T18:26:18.159Z,96287.80
2019-02-10T18:26:46.566Z,96289.11
2019-02-10T18:26:57.528Z,96279.48
2019-02-10T18:27:08.457Z,96290.55
2019-02-10T18:27:22.602Z,96288.08
2019-02-10T18:27:52.067Z,96282.50
2019-02-10T18:28:03.012Z,96281.26
2019-02-10T18:28:13.964Z,96283.88
2019-02-10T18:28:27.717Z,96292.19
2019-02-10T18:28:38.710Z,96298.31
2019-02-10T18:29:04.673Z,96296.11
2019-02-10T18:29:36.495Z,96290.88
2019-02-10T18:29:51.752Z,96302.91
2019-02-10T18:30:02.955Z,96312.31
2019-02-10T18:30:21.502Z,96299.11
2019-02-10T18:30:48.854Z,96306.00
2019-02-10T18:31:08.621Z,96296.31
2019-02-10T18:31:22.372Z,96302.33
2019-02-10T18:31:33.341Z,96309.65
2019-02-10T18:31:44.272Z,96307.41
2019-02-10T18:31:58.007Z,96314.30
2019-02-10T18:32:11.796Z,96302.45
2019-02-10T18:32:22.753Z,96321.09
2019-02-10T18:32:33.695Z,96318.34
2019-02-10T18:32:47.745Z,96323.05
2019-02-10T18:32:58.697Z,96320.81
2019-02-10T18:33:09.646Z,96320.75
2019-02-10T18:33:36.630Z,96321.99
2019-02-10T18:34:02.564Z,96323.70
2019-02-10T18:34:13.504Z,96329.31
2019-02-10T18:34:24.460Z,96330.50
2019-02-10T18:34:35.413Z,96333.05
2019-02-10T18:52:13.157Z,96342.39
2019-02-10T18:52:24.102Z,96341.20
2019-02-10T18:52:51.368Z,96339.90
2019-02-10T18:53:11.327Z,96341.67
2019-02-10T18:53:22.271Z,96342.52
2019-02-10T18:53:36.179Z,96340.67
2019-02-10T18:53:50.270Z,96339.37
2019-02-10T18:54:07.057Z,96346.85
2019-02-10T18:54:23.786Z,96344.67
2019-02-10T18:54:40.558Z,96340.67
2019-02-10T18:55:07.865Z,96352.47
2019-02-10T18:55:18.823Z,96349.38
2019-02-10T18:55:47.887Z,96353.00
2019-02-10T18:56:14.207Z,96353.40
2019-02-10T18:56:25.183Z,96353.23
2019-02-10T18:56:36.136Z,96361.88
2019-02-10T18:56:53.202Z,96361.44
2019-02-10T18:57:12.937Z,96364.96
2019-02-10T18:57:29.637Z,96364.13
2019-02-10T18:57:59.609Z,96366.73
2019-02-10T18:58:16.593Z,96361.97
2019-02-10T18:58:33.247Z,96367.64
2019-02-10T18:58:44.191Z,96370.20
2019-02-10T18:59:11.477Z,96373.66
2019-02-10T18:59:31.680Z,96372.35
2019-02-10T18:59:42.649Z,96369.73
2019-02-10T18:59:53.807Z,96378.90
2019-02-10T19:00:05.435Z,96377.59
2019-02-10T19:00:19.551Z,96377.22
2019-02-10T19:00:30.596Z,96379.37
2019-02-10T19:00:44.463Z,96380.21
2019-02-10T19:00:55.448Z,96379.30
2019-02-10T19:01:06.394Z,96384.95
2019-02-10T19:01:20.446Z,96382.77
2019-02-10T19:01:31.470Z,96376.69
2019-02-10T19:01:51.410Z,96381.92
2019-02-10T19:02:02.358Z,96372.76
2019-02-10T19:02:13.373Z,96378.84
2019-02-10T19:02:30.264Z,96383.64
2019-02-10T19:03:00.398Z,96385.32
2019-02-10T19:03:27.525Z,96378.40
2019-02-10T19:03:41.071Z,96391.87
2019-02-10T19:04:10.345Z,96390.97
2019-02-10T19:04:24.324Z,96391.34
2019-02-10T19:04:51.456Z,96390.03
2019-02-10T19:05:07.884Z,96393.48
2019-02-10T19:05:21.526Z,96395.67
2019-02-10T19:05:35.039Z,96402.59
2019-02-10T19:05:58.046Z,96397.83
2019-02-10T19:06:08.994Z,96393.42
2019-02-10T19:06:19.927Z,96401.28
2019-02-10T19:06:36.619Z,96403.91
2019-02-10T19:06:56.653Z,96404.37
2019-02-10T19:07:07.687Z,96395.61
2019-02-10T19:07:24.561Z,96403.37
2019-02-10T19:07:35.591Z,96402.94
2019-02-10T19:07:46.597Z,96398.13
2019-02-10T19:08:06.537Z,96395.08
2019-02-10T19:08:17.572Z,96403.78
2019-02-10T19:08:31.152Z,96398.13
2019-02-10T19:08:44.775Z,96404.69
2019-02-10T19:09:07.950Z,96403.31
2019-02-10T19:09:35.145Z,96402.47
2019-02-10T19:09:55.020Z,96403.66
2019-02-10T19:10:10.425Z,96396.16
2019-02-10T19:10:33.316Z,96392.23
2019-02-10T19:11:02.494Z,96399.19
2019-02-10T19:11:18.941Z,96390.48
2019-02-10T19:11:29.940Z,96392.64
2019-02-10T19:12:00.485Z,96395.20
2019-02-10T19:12:26.455Z,96393.02
2019-02-10T19:12:40.204Z,96395.09
2019-02-10T19:12:56.708Z,96397.72
2019-02-10T19:13:23.634Z,96395.03
2019-02-10T19:13:49.637Z,96402.46
2019-02-10T19:14:00.591Z,96403.23
2019-02-10T19:14:20.384Z,96404.48
2019-02-10T19:14:44.262Z,96407.94
2019-02-10T19:14:50.166Z,96404.92
2019-02-10T19:15:01.121Z,96402.30
2019-02-10T19:15:20.925Z,96406.23
2019-02-10T19:15:43.976Z,96405.86
2019-02-10T19:16:00.695Z,96411.09
2019-02-10T19:16:11.653Z,96409.38
2019-02-10T19:16:34.499Z,96413.78
2019-02-10T19:16:51.544Z,96416.34
2019-02-10T19:17:02.476Z,96419.86
2019-02-10T19:17:31.112Z,96420.70
2019-02-10T19:17:42.201Z,96419.02
2019-02-10T19:17:55.740Z,96416.88
2019-02-10T19:18:09.565Z,96411.63
2019-02-10T19:18:32.816Z,96418.55
2019-02-10T19:18:43.755Z,96420.80
2019-02-10T19:19:00.947Z,96417.25
2019-02-10T19:19:12.410Z,96418.62
2019-02-10T19:19:25.978Z,96422.48
2019-02-10T19:19:39.575Z,96429.03
2019-02-10T19:19:56.313Z,96430.75
2019-02-10T19:20:25.745Z,96427.25
2019-02-10T19:20:45.510Z,96428.13
2019-02-10T19:21:11.369Z,96421.17
2019-02-10T19:21:40.831Z,96432.43
2019-02-10T19:22:09.979Z,96429.44
2019-02-10T19:22:23.861Z,96419.80
2019-02-10T19:22:34.809Z,96429.75
2019-02-10T19:23:01.834Z,96429.38
2019-02-10T19:23:12.831Z,96435.83
2019-02-10T19:23:23.866Z,96427.59
2019-02-10T19:23:40.991Z,96434.52
2019-02-10T19:23:58.020Z,96438.98
2019-02-10T19:24:09.013Z,96433.21
2019-02-10T19:24:21.043Z,96436.30
2019-02-10T19:24:44.256Z,96437.14
2019-02-10T19:25:04.160Z,96437.14
2019-02-10T19:25:17.823Z,96431.47
2019-02-10T19:25:34.809Z,96440.17
2019-02-10T19:25:51.937Z,96434.02
2019-02-10T19:26:03.272Z,96428.38
2019-02-10T19:26:29.544Z,96430.59
2019-02-10T19:26:40.497Z,96445.88
2019-02-10T19:26:53.994Z,96432.30
2019-02-10T19:27:13.584Z,96439.70
2019-02-10T19:27:41.225Z,96425.75
2019-02-10T19:28:00.904Z,96416.58
2019-02-10T19:28:23.641Z,96429.28
2019-02-10T19:28:40.509Z,96426.16
2019-02-10T19:29:00.738Z,96423.54
2019-02-10T19:29:23.456Z,96421.76
2019-02-10T19:29:34.408Z,96433.48
2019-02-10T19:29:45.368Z,96433.48
2019-02-10T19:30:08.107Z,96428.25
2019-02-10T19:30:22.025Z,96423.91
2019-02-10T19:30:39.012Z,96428.31
2019-02-10T19:30:59.282Z,96434.80
2019-02-10T19:31:10.249Z,96430.40
2019-02-10T19:31:39.271Z,96432.61
2019-02-10T19:32:08.647Z,96420.39
2019-02-10T19:32:32.694Z,96429.09
2019-02-10T19:32:46.724Z,96425.16
2019-02-10T19:33:03.852Z,96428.63
2019-02-10T19:33:14.944Z,96424.69
2019-02-10T19:33:25.981Z,96424.22
2019-02-10T19:33:36.937Z,96423.84
2019-02-10T19:34:04.492Z,96427.31
2019-02-10T19:34:15.480Z,96426.84
2019-02-10T19:34:35.501Z,96425.09
2019-02-10T19:34:58.412Z,96429.39
2019-02-10T19:35:12.329Z,96424.69
2019-02-10T19:35:35.117Z,96425.47
2019-02-10T19:35:46.070Z,96427.25
2019-02-10T19:35:57.017Z,96423.84
2019-02-10T19:36:11.073Z,96429.02
2019-02-10T19:36:22.097Z,96427.72
2019-02-10T19:36:35.895Z,96427.72
2019-02-10T19:36:52.632Z,96427.25
2019-02-10T19:37:03.660Z,96433.80
2019-02-10T19:37:17.532Z,96432.89
2019-02-10T19:37:31.266Z,96429.39
2019-02-10T19:37:58.484Z,96432.36
2019-02-10T19:38:18.705Z,96430.17
2019-02-10T19:38:32.528Z,96429.73
2019-02-10T19:38:52.396Z,96426.24
2019-02-10T19:39:03.355Z,96427.96
2019-02-10T19:39:22.177Z,96423.49
2019-02-10T19:39:48.290Z,96431.36
2019-02-10T19:40:14.204Z,96428.73
2019-02-10T19:40:25.224Z,96430.45
2019-02-10T19:40:36.179Z,96434.75
2019-02-10T19:40:52.916Z,96424.27
2019-02-10T19:41:12.849Z,96430.83
2019-02-10T19:41:29.707Z,96428.61
2019-02-10T19:41:40.660Z,96438.12
2019-02-10T19:42:00.769Z,96435.03
2019-02-10T19:42:17.568Z,96441.98
2019-02-10T19:42:34.479Z,96429.72
2019-02-10T19:43:01.547Z,96436.21
2019-02-10T19:43:24.389Z,96438.77
2019-02-10T19:43:50.364Z,96435.67
2019-02-10T19:44:13.142Z,96436.08
2019-02-10T19:44:39.360Z,96444.79
2019-02-10T19:44:50.305Z,96436.02